createdAt,value
2017-11-17T00:00:04.957Z,27.10
2017-11-17T00:02:33.951Z,26.27
2017-11-17T00:05:02.841Z,25.23
2017-11-17T00:07:31.710Z,25.77
2017-11-17T00:10:00.572Z,25.00
2017-11-17T00:12:29.488Z,24.47
2017-11-17T00:14:58.362Z,25.90
2017-11-17T00:17:27.540Z,26.10
2017-11-17T00:19:56.403Z,25.63
2017-11-17T00:22:25.268Z,26.07
2017-11-17T00:24:54.153Z,26.10
2017-11-17T00:27:23.019Z,26.87
2017-11-17T00:29:51.937Z,25.73
2017-11-17T00:32:20.792Z,26.40
2017-11-17T00:34:49.660Z,26.30
2017-11-17T00:37:18.550Z,22.80
2017-11-17T00:39:47.403Z,24.87
2017-11-17T00:42:16.296Z,25.10
2017-11-17T00:44:45.190Z,24.13
2017-11-17T00:47:14.073Z,26.03
2017-11-17T00:49:42.952Z,24.40
2017-11-17T00:52:11.823Z,27.00
2017-11-17T00:54:40.727Z,25.47
2017-11-17T00:57:09.604Z,23.70
2017-11-17T00:59:38.461Z,25.67
2017-11-17T01:02:07.414Z,25.70
2017-11-17T01:04:36.296Z,26.00
2017-11-17T01:07:06.108Z,27.00
2017-11-17T01:09:34.976Z,25.37
2017-11-17T01:12:03.862Z,25.60
2017-11-17T01:14:32.773Z,27.40
2017-11-17T01:17:01.690Z,25.73
2017-11-17T01:19:30.614Z,27.30
2017-11-17T01:21:59.551Z,25.60
2017-11-17T01:24:28.853Z,26.57
2017-11-17T01:26:57.730Z,26.20
2017-11-17T01:29:26.620Z,25.27
2017-11-17T01:31:55.510Z,24.90
2017-11-17T01:34:24.369Z,25.50
2017-11-17T01:36:53.297Z,23.90
2017-11-17T01:39:22.165Z,24.73
2017-11-17T01:41:51.032Z,22.83
2017-11-17T01:44:19.912Z,22.73
2017-11-17T01:46:48.775Z,23.20
2017-11-17T01:49:17.654Z,23.93
2017-11-17T01:51:46.506Z,22.97
2017-11-17T01:54:15.524Z,23.20
2017-11-17T01:56:44.384Z,24.67
2017-11-17T01:59:13.260Z,26.30
2017-11-17T02:01:42.146Z,24.40
2017-11-17T02:04:11.756Z,22.60
2017-11-17T02:06:40.642Z,22.03
2017-11-17T02:09:09.497Z,21.37
2017-11-17T02:11:38.368Z,25.47
2017-11-17T02:14:07.247Z,21.90
2017-11-17T02:16:36.303Z,23.77
2017-11-17T02:19:05.160Z,20.23
2017-11-17T02:21:34.049Z,21.37
2017-11-17T02:24:02.948Z,22.40
2017-11-17T02:26:31.901Z,20.10
2017-11-17T02:29:00.792Z,20.63
2017-11-17T02:31:29.711Z,19.60
2017-11-17T02:33:58.868Z,17.40
2017-11-17T02:36:27.737Z,17.00
2017-11-17T02:38:56.594Z,18.03
2017-11-17T02:41:25.475Z,18.60
2017-11-17T02:43:54.345Z,16.57
2017-11-17T02:46:23.274Z,15.00
2017-11-17T02:48:52.136Z,13.90
2017-11-17T02:51:21.029Z,11.13
2017-11-17T02:53:49.893Z,12.23
2017-11-17T02:56:18.740Z,15.53
2017-11-17T02:58:47.635Z,16.30
2017-11-17T03:01:16.495Z,18.23
2017-11-17T03:03:45.551Z,21.63
2017-11-17T03:06:14.411Z,19.77
2017-11-17T03:08:43.278Z,18.50
2017-11-17T03:11:12.208Z,22.47
2017-11-17T03:13:41.082Z,20.27
2017-11-17T03:16:09.947Z,20.67
2017-11-17T03:18:38.824Z,19.97
2017-11-17T03:21:07.710Z,19.87
2017-11-17T03:23:36.624Z,19.33
2017-11-17T03:26:05.510Z,17.87
2017-11-17T03:28:34.402Z,16.33
2017-11-17T03:31:03.282Z,15.70
2017-11-17T03:33:32.175Z,19.90
2017-11-17T03:36:01.047Z,21.27
2017-11-17T03:38:29.937Z,21.27
2017-11-17T03:40:58.879Z,20.07
2017-11-17T03:43:27.794Z,23.00
2017-11-17T03:45:56.663Z,24.20
2017-11-17T03:48:25.557Z,24.83
2017-11-17T03:50:54.421Z,23.13
2017-11-17T03:53:23.288Z,25.23
2017-11-17T03:55:52.209Z,22.80
2017-11-17T03:58:21.070Z,24.00
2017-11-17T04:00:49.942Z,22.50
2017-11-17T04:03:18.836Z,23.37
2017-11-17T04:05:47.710Z,24.30
2017-11-17T04:08:16.616Z,27.93
2017-11-17T04:10:45.491Z,26.37
2017-11-17T04:13:14.435Z,29.20
2017-11-17T04:15:43.323Z,25.53
2017-11-17T04:18:12.219Z,26.90
2017-11-17T04:20:41.139Z,24.50
2017-11-17T04:23:10.021Z,26.20
2017-11-17T04:25:38.912Z,25.43
2017-11-17T04:28:07.803Z,28.00
2017-11-17T04:30:36.689Z,25.80
2017-11-17T04:33:05.590Z,25.50
2017-11-17T04:35:34.544Z,26.67
2017-11-17T04:38:03.412Z,24.43
2017-11-17T04:40:32.286Z,28.17
2017-11-17T04:43:01.191Z,26.20
2017-11-17T04:45:30.051Z,26.17
2017-11-17T04:47:58.919Z,25.87
2017-11-17T04:50:27.812Z,25.10
2017-11-17T04:52:56.701Z,25.47
2017-11-17T04:55:25.575Z,27.90
2017-11-17T04:57:54.439Z,26.67
2017-11-17T05:00:23.324Z,25.93
2017-11-17T05:02:52.186Z,23.93
2017-11-17T05:05:21.128Z,26.60
2017-11-17T05:07:50.040Z,29.67
2017-11-17T05:10:18.912Z,29.07
2017-11-17T05:12:47.803Z,25.03
2017-11-17T05:15:16.668Z,25.67
2017-11-17T05:17:45.572Z,25.50
2017-11-17T05:20:14.694Z,26.57
2017-11-17T05:22:43.750Z,28.53
2017-11-17T05:25:12.620Z,26.60
2017-11-17T05:27:41.468Z,26.93
2017-11-17T05:30:10.364Z,28.77
2017-11-17T05:32:39.223Z,28.30
2017-11-17T05:35:08.123Z,27.50
2017-11-17T05:37:36.980Z,28.20
2017-11-17T05:40:05.890Z,27.00
2017-11-17T05:42:34.763Z,27.90
2017-11-17T05:45:03.623Z,28.77
2017-11-17T05:47:32.520Z,28.17
2017-11-17T05:50:01.379Z,27.53
2017-11-17T05:52:30.268Z,28.00
2017-11-17T05:54:59.126Z,27.70
2017-11-17T05:57:28.033Z,29.27
2017-11-17T05:59:56.913Z,28.53
2017-11-17T06:02:25.799Z,27.77
2017-11-17T06:04:54.683Z,27.97
2017-11-17T06:07:23.573Z,28.33
2017-11-17T06:09:52.453Z,30.23
2017-11-17T06:12:21.319Z,27.53
2017-11-17T06:14:50.194Z,26.90
2017-11-17T06:17:19.063Z,28.37
2017-11-17T06:19:47.976Z,27.13
2017-11-17T06:22:16.846Z,28.90
2017-11-17T06:24:45.716Z,28.67
2017-11-17T06:27:14.588Z,28.70
2017-11-17T06:29:43.467Z,28.87
2017-11-17T06:32:12.356Z,27.10
2017-11-17T06:34:41.223Z,28.67
2017-11-17T06:37:10.121Z,31.00
2017-11-17T06:39:38.981Z,29.43
2017-11-17T06:42:07.852Z,30.80
2017-11-17T06:44:36.739Z,29.60
2017-11-17T06:47:05.617Z,29.33
2017-11-17T06:49:34.671Z,28.07
2017-11-17T06:52:03.540Z,31.40
2017-11-17T06:54:32.493Z,33.07
2017-11-17T06:57:01.390Z,30.33
2017-11-17T06:59:30.290Z,29.17
2017-11-17T07:01:59.202Z,31.20
2017-11-17T07:04:28.080Z,29.80
2017-11-17T07:06:56.969Z,31.60
2017-11-17T07:09:25.870Z,30.77
2017-11-17T07:11:54.747Z,29.57
2017-11-17T07:14:23.605Z,29.60
2017-11-17T07:16:52.480Z,30.00
2017-11-17T07:19:21.364Z,30.77
2017-11-17T07:21:50.262Z,30.60
2017-11-17T07:24:19.163Z,31.47
2017-11-17T07:26:48.023Z,27.50
2017-11-17T07:29:16.891Z,29.57
2017-11-17T07:31:45.780Z,32.27
2017-11-17T07:34:14.688Z,29.37
2017-11-17T07:36:43.778Z,28.83
2017-11-17T07:39:12.664Z,28.47
2017-11-17T07:41:41.535Z,33.80
2017-11-17T07:44:10.382Z,29.90
2017-11-17T07:46:39.303Z,31.53
2017-11-17T07:49:08.167Z,30.83
2017-11-17T07:51:37.059Z,32.37
2017-11-17T07:54:05.912Z,29.50
2017-11-17T07:56:34.797Z,30.13
2017-11-17T07:59:03.715Z,29.87
2017-11-17T08:01:32.604Z,29.33
2017-11-17T08:04:01.487Z,29.27
2017-11-17T08:06:30.386Z,31.80
2017-11-17T08:08:59.829Z,31.47
2017-11-17T08:11:28.727Z,29.53
2017-11-17T08:13:57.640Z,29.57
2017-11-17T08:16:26.580Z,30.60
2017-11-17T08:18:55.434Z,30.00
2017-11-17T08:21:24.383Z,31.90
2017-11-17T08:23:53.315Z,28.00
2017-11-17T08:26:22.226Z,30.60
2017-11-17T08:28:51.122Z,32.33
2017-11-17T08:31:21.383Z,30.97
2017-11-17T08:33:50.245Z,30.50
2017-11-17T08:36:19.157Z,31.13
2017-11-17T08:38:48.024Z,30.40
2017-11-17T08:41:16.913Z,31.53
2017-11-17T08:43:45.975Z,33.50
2017-11-17T08:46:15.001Z,28.90
2017-11-17T08:48:43.886Z,32.03
2017-11-17T08:51:12.800Z,32.97
2017-11-17T08:53:41.695Z,30.90
2017-11-17T08:56:10.605Z,33.07
2017-11-17T08:58:39.501Z,33.30
2017-11-17T09:01:08.395Z,31.80
2017-11-17T09:03:37.291Z,31.73
2017-11-17T09:06:06.223Z,31.30
2017-11-17T09:08:35.838Z,28.53
2017-11-17T09:11:04.756Z,30.00
2017-11-17T09:13:33.628Z,31.73
2017-11-17T09:16:02.551Z,31.67
2017-11-17T09:18:31.450Z,30.20
2017-11-17T09:21:00.325Z,30.40
2017-11-17T09:23:29.401Z,31.77
2017-11-17T09:25:58.357Z,30.57
2017-11-17T09:28:27.266Z,31.53
2017-11-17T09:30:56.152Z,33.67
2017-11-17T09:33:25.033Z,32.47
2017-11-17T09:35:53.887Z,33.00
2017-11-17T09:38:22.797Z,36.30
2017-11-17T09:40:51.662Z,28.87
2017-11-17T09:43:20.580Z,29.87
2017-11-17T09:45:49.442Z,30.03
2017-11-17T09:48:18.341Z,30.50
2017-11-17T09:50:47.212Z,31.03
2017-11-17T09:53:16.070Z,30.10
2017-11-17T09:55:45.051Z,30.27
2017-11-17T09:58:13.938Z,30.70
2017-11-17T10:00:42.840Z,34.47
2017-11-17T10:03:11.713Z,30.87
2017-11-17T10:05:40.614Z,27.93
2017-11-17T10:08:09.496Z,30.10
2017-11-17T10:10:38.443Z,31.53
2017-11-17T10:13:07.276Z,29.97
2017-11-17T10:15:36.204Z,28.73
2017-11-17T10:18:05.088Z,30.37
2017-11-17T10:20:33.967Z,31.10
2017-11-17T10:23:02.836Z,34.97
2017-11-17T10:25:31.718Z,30.43
2017-11-17T10:28:00.662Z,32.27
2017-11-17T10:30:29.518Z,30.70
2017-11-17T10:32:58.372Z,33.67
2017-11-17T10:35:27.264Z,32.00
2017-11-17T10:37:56.115Z,34.10
2017-11-17T10:40:24.984Z,30.73
2017-11-17T10:42:53.875Z,30.33
2017-11-17T10:45:22.834Z,28.90
2017-11-17T10:47:51.720Z,29.70
2017-11-17T10:50:20.579Z,29.27
2017-11-17T10:52:49.493Z,26.97
2017-11-17T10:55:18.362Z,26.97
2017-11-17T10:57:47.255Z,26.10
2017-11-17T11:00:22.864Z,29.47
2017-11-17T11:02:51.759Z,27.00
2017-11-17T11:05:20.625Z,31.03
2017-11-17T11:07:49.509Z,25.80
2017-11-17T11:10:18.373Z,30.23
2017-11-17T11:12:47.267Z,28.17
2017-11-17T11:15:16.137Z,29.67
2017-11-17T11:17:45.005Z,29.73
2017-11-17T11:20:13.876Z,30.47
2017-11-17T11:22:42.765Z,30.90
2017-11-17T11:25:11.646Z,28.90
2017-11-17T11:27:40.611Z,30.30
2017-11-17T11:30:09.496Z,30.20
2017-11-17T11:32:38.359Z,28.33
2017-11-17T11:35:07.242Z,27.63
2017-11-17T11:37:36.110Z,31.23
2017-11-17T11:40:05.004Z,30.13
2017-11-17T11:42:33.873Z,31.60
2017-11-17T11:45:02.743Z,28.27
2017-11-17T11:47:31.622Z,29.63
2017-11-17T11:50:00.472Z,27.47
2017-11-17T11:52:29.367Z,27.53
2017-11-17T11:54:58.280Z,28.47
2017-11-17T11:57:27.189Z,26.80
2017-11-17T11:59:56.044Z,29.17
2017-11-17T12:02:24.929Z,29.07
2017-11-17T12:04:53.783Z,30.93
2017-11-17T12:07:22.700Z,29.87
2017-11-17T12:09:51.552Z,31.50
2017-11-17T12:12:20.421Z,29.93
2017-11-17T12:14:49.308Z,29.20
2017-11-17T12:17:18.309Z,27.97
2017-11-17T12:19:47.183Z,28.37
2017-11-17T12:22:16.079Z,30.90
2017-11-17T12:24:44.974Z,29.50
2017-11-17T12:27:13.852Z,31.80
2017-11-17T12:29:42.718Z,25.20
2017-11-17T12:32:11.599Z,28.50
2017-11-17T12:34:40.571Z,31.47
2017-11-17T12:37:09.454Z,30.50
2017-11-17T12:39:38.485Z,30.80
2017-11-17T12:42:07.400Z,28.20
2017-11-17T12:44:36.288Z,30.77
2017-11-17T12:47:05.154Z,31.90
2017-11-17T12:49:34.042Z,33.00
2017-11-17T12:52:02.932Z,35.77
2017-11-17T12:54:31.875Z,39.53
2017-11-17T12:57:00.726Z,32.90
2017-11-17T12:59:29.713Z,32.93
2017-11-17T13:01:58.564Z,30.30
2017-11-17T13:04:27.445Z,29.97
2017-11-17T13:06:56.359Z,32.00
2017-11-17T13:09:25.234Z,31.30
2017-11-17T13:11:54.142Z,32.13
2017-11-17T13:14:22.991Z,31.37
2017-11-17T13:16:52.102Z,28.80
2017-11-17T13:19:20.969Z,29.20
2017-11-17T13:21:49.950Z,32.20
2017-11-17T13:24:18.842Z,32.50
2017-11-17T13:26:47.719Z,31.67
2017-11-17T13:29:16.595Z,31.10
2017-11-17T13:31:45.480Z,32.33
2017-11-17T13:34:14.362Z,31.00
2017-11-17T13:36:43.261Z,30.10
2017-11-17T13:39:12.109Z,31.13
2017-11-17T13:41:41.016Z,32.27
2017-11-17T13:44:09.894Z,31.13
2017-11-17T13:46:38.758Z,30.37
2017-11-17T13:49:07.621Z,29.37
2017-11-17T13:51:36.525Z,32.50
2017-11-17T13:54:05.483Z,29.53
2017-11-17T13:56:34.674Z,31.67
2017-11-17T13:59:03.547Z,31.57
2017-11-17T14:01:32.412Z,32.23
2017-11-17T14:04:01.312Z,26.73
2017-11-17T14:06:30.918Z,31.47
2017-11-17T14:09:00.037Z,31.70
2017-11-17T14:11:28.970Z,28.30
2017-11-17T14:13:57.892Z,30.60
2017-11-17T14:16:26.775Z,28.63
2017-11-17T14:18:55.638Z,32.00
2017-11-17T14:21:24.503Z,32.27
2017-11-17T14:23:53.364Z,35.90
2017-11-17T14:26:22.244Z,30.97
2017-11-17T14:28:51.100Z,33.67
2017-11-17T14:31:19.954Z,30.03
2017-11-17T14:33:48.828Z,30.00
2017-11-17T14:36:17.783Z,30.50
2017-11-17T14:38:47.033Z,32.60
2017-11-17T14:41:15.908Z,29.83
2017-11-17T14:43:44.814Z,32.30
2017-11-17T14:46:13.672Z,28.87
2017-11-17T14:48:42.733Z,28.80
2017-11-17T14:51:11.624Z,29.47
2017-11-17T14:53:40.686Z,33.93
2017-11-17T14:56:10.992Z,31.53
2017-11-17T14:58:42.097Z,31.33
2017-11-17T15:01:11.152Z,33.07
2017-11-17T15:03:42.365Z,31.03
2017-11-17T15:06:12.986Z,31.10
2017-11-17T15:08:42.096Z,32.20
2017-11-17T15:11:15.642Z,30.50
2017-11-17T15:13:45.222Z,32.83
2017-11-17T15:16:14.367Z,32.00
2017-11-17T15:18:43.247Z,29.23
2017-11-17T15:21:12.123Z,33.30
2017-11-17T15:23:41.028Z,33.10
2017-11-17T15:26:09.902Z,31.10
2017-11-17T15:28:38.779Z,28.40
2017-11-17T15:31:07.651Z,30.27
2017-11-17T15:33:36.511Z,30.90
2017-11-17T15:36:05.401Z,29.77
2017-11-17T15:38:34.291Z,32.00
2017-11-17T15:41:03.164Z,29.20
2017-11-17T15:43:32.034Z,28.70
2017-11-17T15:46:00.922Z,29.93
2017-11-17T15:48:29.788Z,29.67
2017-11-17T15:50:58.659Z,30.13
2017-11-17T15:53:27.563Z,31.37
2017-11-17T15:55:56.443Z,28.87
2017-11-17T15:58:25.323Z,31.33
2017-11-17T16:00:54.179Z,29.77
2017-11-17T16:03:23.055Z,30.63
2017-11-17T16:05:51.912Z,30.30
2017-11-17T16:08:20.788Z,28.87
2017-11-17T16:10:49.703Z,29.17
2017-11-17T16:13:18.611Z,33.00
2017-11-17T16:15:47.471Z,31.67
2017-11-17T16:18:16.340Z,43.77
2017-11-17T16:20:45.252Z,32.57
2017-11-17T16:23:14.102Z,29.63
2017-11-17T16:25:42.990Z,28.60
2017-11-17T16:28:11.882Z,29.77
2017-11-17T16:30:40.771Z,29.03
2017-11-17T16:33:09.626Z,32.93
2017-11-17T16:35:38.496Z,39.95
2017-11-17T16:38:07.537Z,35.20
2017-11-17T16:40:36.418Z,31.73
2017-11-17T16:43:05.312Z,27.70
2017-11-17T16:45:34.164Z,31.70
2017-11-17T16:48:03.057Z,33.03
2017-11-17T16:50:32.609Z,31.63
2017-11-17T16:53:01.480Z,29.47
2017-11-17T16:55:30.347Z,28.63
2017-11-17T16:57:59.239Z,32.50
2017-11-17T17:00:28.171Z,32.80
2017-11-17T17:02:57.026Z,31.70
2017-11-17T17:05:25.932Z,31.70
2017-11-17T17:07:54.791Z,32.07
2017-11-17T17:10:23.647Z,32.10
2017-11-17T17:12:52.573Z,30.57
2017-11-17T17:15:21.459Z,30.50
2017-11-17T17:17:50.335Z,28.97
2017-11-17T17:20:19.223Z,28.27
2017-11-17T17:22:48.093Z,30.60
2017-11-17T17:25:16.951Z,30.77
2017-11-17T17:27:45.839Z,28.33
2017-11-17T17:30:14.820Z,27.97
2017-11-17T17:32:43.690Z,69.30
2017-11-17T17:35:12.576Z,48.20
2017-11-17T17:37:41.502Z,49.83
2017-11-17T17:40:10.414Z,30.20
2017-11-17T17:42:39.309Z,29.10
2017-11-17T17:45:08.463Z,31.60
2017-11-17T17:47:37.400Z,31.47
2017-11-17T17:50:06.280Z,29.93
2017-11-17T17:52:35.159Z,26.73
2017-11-17T17:55:04.033Z,28.80
2017-11-17T17:57:33.010Z,30.77
2017-11-17T18:00:02.053Z,31.57
2017-11-17T18:02:31.099Z,28.00
2017-11-17T18:04:59.963Z,28.23
2017-11-17T18:07:28.902Z,29.30
2017-11-17T18:09:57.817Z,29.73
2017-11-17T18:12:26.912Z,30.37
2017-11-17T18:14:55.909Z,30.20
2017-11-17T18:17:25.840Z,29.53
2017-11-17T18:19:54.727Z,27.90
2017-11-17T18:22:23.645Z,27.73
2017-11-17T18:24:52.559Z,30.00
2017-11-17T18:27:21.487Z,34.20
2017-11-17T18:29:50.467Z,32.07
2017-11-17T18:32:19.467Z,76.93
2017-11-17T18:34:48.388Z,36.70
2017-11-17T18:37:17.295Z,37.63
2017-11-17T18:39:46.155Z,29.67
2017-11-17T18:42:15.090Z,27.70
2017-11-17T18:44:43.988Z,30.27
2017-11-17T18:47:12.959Z,28.70
2017-11-17T18:49:41.817Z,32.10
2017-11-17T18:52:10.682Z,27.10
2017-11-17T18:54:39.596Z,28.90
2017-11-17T18:57:08.540Z,33.53
2017-11-17T18:59:37.422Z,30.43
2017-11-17T19:02:06.300Z,30.43
2017-11-17T19:04:35.268Z,29.93
2017-11-17T19:07:04.594Z,29.67
2017-11-17T19:09:33.542Z,27.87
2017-11-17T19:12:02.392Z,30.57
2017-11-17T19:14:31.267Z,30.33
2017-11-17T19:17:00.841Z,30.00
2017-11-17T19:19:29.707Z,29.70
2017-11-17T19:21:58.614Z,31.33
2017-11-17T19:24:27.503Z,28.67
2017-11-17T19:26:56.357Z,29.20
2017-11-17T19:29:25.235Z,31.40
2017-11-17T19:31:54.096Z,32.70
2017-11-17T19:34:23.021Z,30.10
2017-11-17T19:36:51.945Z,29.87
2017-11-17T19:39:20.800Z,30.50
2017-11-17T19:41:49.668Z,31.43
2017-11-17T19:44:18.540Z,28.83
2017-11-17T19:46:47.437Z,28.60
2017-11-17T19:49:16.304Z,29.13
2017-11-17T19:51:45.215Z,28.83
2017-11-17T19:54:14.099Z,31.03
2017-11-17T19:56:43.132Z,31.87
2017-11-17T19:59:11.999Z,30.80
2017-11-17T20:01:41.172Z,29.40
2017-11-17T20:04:10.308Z,28.97
2017-11-17T20:06:39.172Z,30.17
2017-11-17T20:09:08.072Z,30.07
2017-11-17T20:11:37.183Z,65.40
2017-11-17T20:14:06.226Z,44.10
2017-11-17T20:16:35.099Z,36.17
2017-11-17T20:19:03.969Z,29.97
2017-11-17T20:21:32.872Z,27.00
2017-11-17T20:24:01.769Z,27.63
2017-11-17T20:26:30.724Z,27.83
2017-11-17T20:28:59.584Z,27.73
2017-11-17T20:31:28.473Z,26.67
2017-11-17T20:33:57.327Z,27.47
2017-11-17T20:36:26.215Z,27.93
2017-11-17T20:38:55.092Z,28.90
2017-11-17T20:41:24.006Z,28.30
2017-11-17T20:43:52.896Z,30.20
2017-11-17T20:46:21.798Z,28.77
2017-11-17T20:48:50.705Z,26.97
2017-11-17T20:51:19.549Z,30.07
2017-11-17T20:53:48.466Z,27.10
2017-11-17T20:56:17.332Z,27.93
2017-11-17T20:58:46.228Z,27.90
2017-11-17T21:01:15.087Z,28.77
2017-11-17T21:03:43.979Z,30.77
2017-11-17T21:06:12.849Z,29.23
2017-11-17T21:08:41.789Z,27.83
2017-11-17T21:11:10.665Z,30.70
2017-11-17T21:13:39.554Z,40.13
2017-11-17T21:16:08.445Z,32.37
2017-11-17T21:18:37.331Z,29.40
2017-11-17T21:21:06.192Z,29.03
2017-11-17T21:23:35.125Z,30.90
2017-11-17T21:26:04.008Z,30.60
2017-11-17T21:28:32.860Z,29.33
2017-11-17T21:31:01.801Z,29.47
2017-11-17T21:33:30.686Z,27.17
2017-11-17T21:35:59.568Z,28.63
2017-11-17T21:38:28.435Z,28.60
2017-11-17T21:40:57.317Z,27.83
2017-11-17T21:43:26.186Z,29.20
2017-11-17T21:45:55.091Z,30.43
2017-11-17T21:48:23.954Z,28.13
2017-11-17T21:50:52.820Z,29.53
2017-11-17T21:53:21.722Z,26.97
2017-11-17T21:55:50.583Z,29.53
2017-11-17T21:58:19.450Z,29.57
2017-11-17T22:00:48.324Z,27.20
2017-11-17T22:03:17.199Z,28.30
2017-11-17T22:05:46.071Z,27.20
2017-11-17T22:08:14.973Z,26.87
2017-11-17T22:10:43.831Z,27.47
2017-11-17T22:13:12.733Z,28.07
2017-11-17T22:15:41.590Z,27.47
2017-11-17T22:18:10.507Z,28.37
2017-11-17T22:20:39.384Z,27.20
2017-11-17T22:23:08.264Z,27.77
2017-11-17T22:25:37.172Z,26.97
2017-11-17T22:28:06.039Z,28.93
2017-11-17T22:30:35.061Z,27.70
2017-11-17T22:33:03.971Z,28.17
2017-11-17T22:35:32.856Z,28.60
2017-11-17T22:38:01.731Z,29.70
2017-11-17T22:40:30.649Z,28.07
2017-11-17T22:42:59.531Z,34.43
2017-11-17T22:45:28.393Z,32.00
2017-11-17T22:47:57.271Z,29.47
2017-11-17T22:50:26.130Z,26.97
2017-11-17T22:52:55.001Z,27.70
2017-11-17T22:55:23.857Z,28.90
2017-11-17T22:57:52.820Z,28.70
2017-11-17T23:00:21.687Z,28.53
2017-11-17T23:02:50.575Z,26.80
2017-11-17T23:05:19.427Z,29.43
2017-11-17T23:07:48.369Z,26.47
2017-11-17T23:10:17.227Z,27.33
2017-11-17T23:12:46.083Z,28.03
2017-11-17T23:15:14.984Z,28.10
2017-11-17T23:17:43.838Z,29.97
2017-11-17T23:20:12.706Z,28.10
2017-11-17T23:22:42.245Z,26.20
2017-11-17T23:25:11.128Z,27.00
2017-11-17T23:27:39.998Z,28.10
2017-11-17T23:30:08.870Z,28.60
2017-11-17T23:32:37.768Z,27.97
2017-11-17T23:35:06.632Z,28.37
2017-11-17T23:37:35.514Z,27.90
2017-11-17T23:40:04.395Z,30.07
2017-11-17T23:42:33.255Z,31.80
2017-11-17T23:45:02.149Z,28.93
2017-11-17T23:47:31.029Z,26.77
2017-11-17T23:49:59.960Z,29.10
2017-11-17T23:52:28.839Z,26.10
2017-11-17T23:54:57.736Z,29.20
2017-11-17T23:57:26.601Z,29.03
2017-11-17T23:59:55.464Z,29.30
